North Sydney, Canada
Current Conditions -  °F | °C
As of 8:20 AM on Monday 20 Oct 2014 (Local Time) from CYQY Reporting Station
Broken Clouds Broken Clouds  
Wind Chill: 50°   Ceiling: 1900
Heat Index: 50°   Visibility: 10mi
Dew Point: 48°   Wind: 14mph
Humidity: 94%   Direction: 260°W
Pressure: 29.41"   Gusts: 24mph
Location:  46.21°N, 60.25°W
Report Text: CYQY 201120Z 26012G21KT 10SM FEW008 SCT012 BKN019 10/09 A2941 RMK SF2SC2SC3 PRESRR SLP961
Loading
Personal Weather Stations






























Interactive Weather Map
Tropical Storm Tracking
New forecast layout! Learn more

10-Day Weather Forecast

Advertisements
Track Severe Weather on mobile